Time;durP1;ratioP1;P1;durP2;ratioP2;P2;SDS_P1;SDS_P2;PMS_P1;PMS_P2;Temp;Humidity;BMP_temperature;BMP_pressure;BME280_temperature;BME280_humidity;BME280_pressure;Samples;Min_cycle;Max_cycle;Signal;HPM_P1;HPM_P2
2021/04/19 00:00:34;;;;;;;1.23;1.23;;;8.50;99.90;;;;;;5013123;28;20232;-76
2021/04/19 00:02:59;;;;;;;2.55;2.38;;;8.60;99.90;;;;;;5013372;28;20157;-76
2021/04/19 00:05:25;;;;;;;3.47;2.72;;;8.60;99.90;;;;;;5013358;28;20529;-77
2021/04/19 00:07:51;;;;;;;3.58;3.28;;;8.50;99.90;;;;;;5013285;28;20184;-76
2021/04/19 00:10:19;;;;;;;3.08;2.30;;;8.50;99.90;;;;;;5013529;28;20172;-77
2021/04/19 00:12:46;;;;;;;2.38;2.28;;;8.60;99.90;;;;;;5013364;28;20227;-77
2021/04/19 00:15:13;;;;;;;2.83;2.55;;;8.50;99.90;;;;;;5012061;28;20172;-76
2021/04/19 00:17:39;;;;;;;3.03;2.05;;;8.40;99.90;;;;;;5012031;28;20188;-76
2021/04/19 00:20:06;;;;;;;2.53;2.33;;;8.40;99.90;;;;;;5013194;28;20203;-77
2021/04/19 00:22:33;;;;;;;1.40;1.30;;;8.50;99.90;;;;;;5013217;28;20174;-77
2021/04/19 00:25:03;;;;;;;15.43;4.05;;;8.30;99.90;;;;;;5013305;28;20168;-77
2021/04/19 00:27:28;;;;;;;2.53;2.20;;;8.10;99.90;;;;;;5013297;28;20207;-77
2021/04/19 00:29:54;;;;;;;6.82;3.47;;;8.20;99.90;;;;;;5013647;28;20185;-77
2021/04/19 00:32:20;;;;;;;3.10;1.83;;;8.30;99.90;;;;;;5013229;28;20165;-77
2021/04/19 00:34:46;;;;;;;2.63;2.03;;;8.30;99.90;;;;;;5016035;28;20161;-76
2021/04/19 00:37:11;;;;;;;8.07;1.83;;;8.30;99.90;;;;;;5018892;28;20286;-76
2021/04/19 00:39:37;;;;;;;20.08;2.15;;;8.20;99.90;;;;;;5018580;28;20200;-77
2021/04/19 00:42:03;;;;;;;1.50;1.40;;;8.30;99.90;;;;;;5019202;28;20174;-76
2021/04/19 00:44:29;;;;;;;19.05;2.38;;;8.50;99.90;;;;;;5020975;28;20535;-77
2021/04/19 00:46:55;;;;;;;2.15;2.05;;;8.40;99.90;;;;;;5021022;28;20192;-76
2021/04/19 00:49:23;;;;;;;14.75;3.08;;;8.20;99.90;;;;;;5027016;28;20172;-76
2021/04/19 00:51:49;;;;;;;21.23;3.00;;;8.20;99.90;;;;;;5021176;28;20169;-77
2021/04/19 00:54:16;;;;;;;4.80;0.93;;;8.20;99.90;;;;;;5022119;28;20502;-77
2021/04/19 00:56:46;;;;;;;4.82;3.10;;;8.30;99.90;;;;;;5018348;28;20231;-77
2021/04/19 00:59:12;;;;;;;1.95;1.80;;;8.20;99.90;;;;;;5016546;28;20246;-76
2021/04/19 01:01:38;;;;;;;4.82;1.70;;;8.10;99.90;;;;;;5016770;28;20165;-76
2021/04/19 01:04:04;;;;;;;1.95;1.27;;;8.30;99.90;;;;;;5015257;28;20698;-76
2021/04/19 01:06:30;;;;;;;3.05;1.73;;;8.10;99.90;;;;;;5016489;28;20192;-76
2021/04/19 01:08:55;;;;;;;7.03;4.40;;;8.00;99.90;;;;;;5016444;28;20161;-76
2021/04/19 01:11:21;;;;;;;3.47;1.90;;;8.00;99.90;;;;;;5015147;28;20215;-76
2021/04/19 01:13:46;;;;;;;1.27;1.25;;;8.10;99.90;;;;;;5016343;28;20160;-76
2021/04/19 01:16:12;;;;;;;4.28;3.55;;;8.00;99.90;;;;;;5031396;28;20223;-76
2021/04/19 01:18:38;;;;;;;2.03;1.92;;;8.10;99.90;;;;;;5016299;28;20254;-76
2021/04/19 01:21:04;;;;;;;3.00;2.80;;;8.00;99.90;;;;;;5014889;28;20204;-76
2021/04/19 01:23:30;;;;;;;6.63;3.85;;;8.00;99.90;;;;;;5016539;28;20164;-76
2021/04/19 01:25:55;;;;;;;3.80;2.40;;;8.00;99.90;;;;;;5016049;28;20192;-76
2021/04/19 01:28:26;;;;;;;22.45;3.08;;;8.10;99.90;;;;;;5016012;28;20223;-76
2021/04/19 01:30:52;;;;;;;17.10;3.25;;;8.00;99.90;;;;;;5014692;28;20173;-76
2021/04/19 01:33:19;;;;;;;33.20;3.78;;;8.10;99.90;;;;;;5015962;28;20244;-76
2021/04/19 01:35:46;;;;;;;9.07;2.78;;;8.20;99.90;;;;;;5015967;28;20157;-76
2021/04/19 01:38:15;;;;;;;21.70;4.47;;;7.90;99.90;;;;;;5015914;28;20523;-76
2021/04/19 01:40:43;;;;;;;3.17;2.50;;;7.80;99.90;;;;;;5015704;28;20582;-75
2021/04/19 01:43:08;;;;;;;1.98;1.85;;;7.80;99.90;;;;;;5014808;28;20157;-76
2021/04/19 01:45:34;;;;;;;5.35;3.70;;;7.80;99.90;;;;;;5015274;28;20754;-77
2021/04/19 01:48:00;;;;;;;4.68;3.97;;;7.80;99.90;;;;;;5015865;28;20524;-76
2021/04/19 01:50:28;;;;;;;2.40;1.60;;;7.80;99.90;;;;;;5015927;28;20275;-77
2021/04/19 01:52:57;;;;;;;4.80;3.08;;;7.70;99.90;;;;;;5015559;28;20248;-76
2021/04/19 01:55:25;;;;;;;1.55;1.55;;;7.70;99.90;;;;;;5015706;28;20176;-76
2021/04/19 01:58:00;;;;;;;5.07;3.47;;;7.80;99.90;;;;;;5015398;28;20783;-77
2021/04/19 02:00:27;;;;;;;3.10;2.90;;;7.90;99.90;;;;;;5014008;28;20769;-76
2021/04/19 02:02:56;;;;;;;2.78;2.47;;;8.00;99.90;;;;;;5015394;28;20164;-76
2021/04/19 02:05:28;;;;;;;2.67;2.47;;;8.10;99.90;;;;;;5015413;28;20188;-76
2021/04/19 02:08:31;;;;;;;4.13;2.85;;;8.00;99.90;;;;;;5015222;28;20551;-77
2021/04/19 02:11:29;;;;;;;2.67;2.38;;;8.00;99.90;;;;;;5015187;28;20175;-77
2021/04/19 02:14:17;;;;;;;4.20;3.22;;;8.10;99.90;;;;;;5013480;28;20264;-76
2021/04/19 02:16:54;;;;;;;2.50;2.30;;;8.00;99.90;;;;;;5015128;28;20567;-75
2021/04/19 02:19:56;;;;;;;5.15;2.92;;;7.80;99.90;;;;;;5030289;28;20196;-76
2021/04/19 02:22:31;;;;;;;2.65;2.22;;;7.90;99.90;;;;;;5015107;28;20156;-75
2021/04/19 02:25:15;;;;;;;2.70;1.77;;;7.90;99.90;;;;;;5014922;28;20164;-76
2021/04/19 02:27:46;;;;;;;1.63;1.52;;;8.00;99.90;;;;;;5014766;28;20185;-75
2021/04/19 02:30:14;;;;;;;5.90;2.03;;;8.00;99.90;;;;;;5015264;28;20161;-75
2021/04/19 02:32:48;;;;;;;2.08;1.98;;;7.90;99.90;;;;;;5014754;28;20625;-76
2021/04/19 02:35:16;;;;;;;2.15;2.05;;;8.00;99.90;;;;;;5014864;28;20160;-76
2021/04/19 02:37:44;;;;;;;1.17;1.17;;;7.90;99.90;;;;;;5014925;28;20203;-76
2021/04/19 02:40:12;;;;;;;2.67;2.58;;;8.00;99.90;;;;;;5014704;28;20193;-76
2021/04/19 02:42:43;;;;;;;48.95;3.15;;;7.80;99.90;;;;;;5014583;28;20639;-77
2021/04/19 02:45:12;;;;;;;3.00;2.80;;;7.90;99.90;;;;;;5014680;28;20662;-76
2021/04/19 02:47:40;;;;;;;3.22;2.92;;;7.70;99.90;;;;;;5014579;28;20230;-76
2021/04/19 02:50:10;;;;;;;1.23;1.23;;;7.60;99.90;;;;;;5014591;28;20204;-76
2021/04/19 02:52:36;;;;;;;30.23;3.10;;;7.40;99.90;;;;;;5013565;28;20511;-76
2021/04/19 02:55:02;;;;;;;14.63;2.83;;;7.30;99.90;;;;;;5014532;28;20179;-76
2021/04/19 02:57:32;;;;;;;3.25;2.53;;;7.20;99.90;;;;;;5013555;28;20602;-76
2021/04/19 02:59:59;;;;;;;2.47;2.33;;;7.30;99.90;;;;;;5012864;28;20587;-76
2021/04/19 03:02:28;;;;;;;2.88;2.50;;;7.40;99.90;;;;;;5014355;28;20169;-76
2021/04/19 03:04:54;;;;;;;3.03;2.75;;;7.60;99.90;;;;;;5012983;28;20173;-75
2021/04/19 03:07:24;;;;;;;2.50;2.30;;;7.60;99.90;;;;;;5014169;28;20196;-75
2021/04/19 03:09:57;;;;;;;8.32;4.47;;;7.60;99.90;;;;;;5012840;28;20578;-76
2021/04/19 03:12:30;;;;;;;2.33;2.10;;;7.50;99.90;;;;;;5014246;28;20192;-75
2021/04/19 03:15:02;;;;;;;3.97;2.40;;;7.40;99.90;;;;;;5014026;28;20176;-76
2021/04/19 03:17:28;;;;;;;4.97;3.90;;;7.50;99.90;;;;;;5013874;28;20250;-75
2021/04/19 03:20:00;;;;;;;34.42;2.90;;;7.60;99.90;;;;;;5013978;28;20204;-75
2021/04/19 03:22:27;;;;;;;2.30;2.20;;;7.60;99.90;;;;;;5014003;28;20580;-75
2021/04/19 03:24:54;;;;;;;2.75;2.55;;;7.50;99.90;;;;;;5014069;28;20157;-75
2021/04/19 03:27:22;;;;;;;9.88;4.05;;;7.40;99.90;;;;;;5013711;28;20194;-76
2021/04/19 03:29:47;;;;;;;4.55;2.67;;;7.40;99.90;;;;;;5029160;28;20551;-75
2021/04/19 03:32:26;;;;;;;2.80;2.00;;;7.40;99.90;;;;;;5013799;28;20188;-76
2021/04/19 03:34:52;;;;;;;2.70;2.28;;;7.40;99.90;;;;;;5012708;28;20172;-76
2021/04/19 03:37:27;;;;;;;3.97;3.72;;;7.40;99.90;;;;;;5013660;28;20196;-76
2021/04/19 03:40:06;;;;;;;3.72;2.83;;;7.60;99.90;;;;;;5028916;28;20203;-75
2021/04/19 03:42:34;;;;;;;9.23;1.92;;;7.70;99.90;;;;;;5013615;28;20167;-76
2021/04/19 03:45:04;;;;;;;12.80;4.55;;;7.80;99.90;;;;;;5012387;28;20165;-76
2021/04/19 03:47:31;;;;;;;4.57;2.75;;;7.80;99.90;;;;;;5013390;28;20246;-76
2021/04/19 03:50:01;;;;;;;29.77;3.00;;;7.90;99.90;;;;;;5013576;28;20168;-76
2021/04/19 03:52:33;;;;;;;4.32;3.97;;;8.00;99.90;;;;;;5013502;28;20164;-76
2021/04/19 03:55:00;;;;;;;3.80;2.25;;;7.80;99.90;;;;;;5013564;28;20584;-76
2021/04/19 03:57:27;;;;;;;12.18;3.95;;;7.50;99.90;;;;;;5013317;28;20568;-76
2021/04/19 03:59:57;;;;;;;4.75;3.17;;;7.50;99.90;;;;;;5013260;28;20216;-76
2021/04/19 04:02:24;;;;;;;2.10;1.98;;;7.50;99.90;;;;;;5013419;28;20172;-76
2021/04/19 04:04:51;;;;;;;11.77;4.47;;;7.60;99.90;;;;;;5013201;28;20171;-76
2021/04/19 04:07:18;;;;;;;22.48;4.05;;;7.70;99.90;;;;;;5013106;28;20191;-75
2021/04/19 04:09:45;;;;;;;13.95;4.97;;;7.60;99.90;;;;;;5013207;28;20613;-76
2021/04/19 04:12:11;;;;;;;3.28;3.08;;;7.70;99.90;;;;;;5013170;28;20684;-76
2021/04/19 04:14:57;;;;;;;10.75;2.55;;;7.50;99.90;;;;;;5013082;28;20168;-75
2021/04/19 04:17:23;;;;;;;7.28;3.88;;;7.40;99.90;;;;;;5012015;28;20258;-77
2021/04/19 04:19:49;;;;;;;4.47;4.07;;;7.50;99.90;;;;;;5012992;28;20196;-76
2021/04/19 04:22:16;;;;;;;10.02;5.07;;;7.50;99.90;;;;;;5013061;28;20590;-75
2021/04/19 04:24:43;;;;;;;8.40;5.13;;;7.50;99.90;;;;;;5013256;28;20157;-77
2021/04/19 04:27:09;;;;;;;6.35;5.55;;;7.60;99.90;;;;;;5013181;28;20180;-76
2021/04/19 04:29:35;;;;;;;7.47;1.90;;;7.90;99.90;;;;;;5013256;28;20176;-76
2021/04/19 04:32:00;;;;;;;11.10;3.33;;;8.00;99.90;;;;;;5013041;28;20168;-77
2021/04/19 04:34:26;;;;;;;3.60;3.30;;;8.00;99.90;;;;;;5013164;28;20519;-78
2021/04/19 04:36:51;;;;;;;5.20;2.70;;;8.00;99.90;;;;;;5012924;28;20188;-77
2021/04/19 04:39:17;;;;;;;7.32;4.25;;;8.00;99.90;;;;;;5012827;28;20674;-74
2021/04/19 04:41:43;;;;;;;6.22;3.58;;;7.90;99.90;;;;;;5013021;28;20230;-75
2021/04/19 04:44:14;;;;;;;9.40;4.93;;;7.90;99.90;;;;;;5012943;28;20164;-74
2021/04/19 04:46:51;;;;;;;3.40;3.17;;;8.10;99.90;;;;;;5012718;28;20234;-79
2021/04/19 04:49:23;;;;;;;9.88;4.13;;;8.20;99.90;;;;;;5012739;28;20183;-78
2021/04/19 04:51:51;;;;;;;22.45;3.95;;;8.30;99.90;;;;;;5012846;28;20196;-79
2021/04/19 04:54:19;;;;;;;3.10;2.65;;;8.30;99.90;;;;;;5012683;28;20165;-77
2021/04/19 04:56:51;;;;;;;9.32;3.20;;;8.40;99.90;;;;;;5012825;28;20263;-78
2021/04/19 04:59:18;;;;;;;15.52;2.35;;;8.20;99.90;;;;;;5012595;28;20676;-78
2021/04/19 05:01:45;;;;;;;3.95;3.47;;;8.40;99.90;;;;;;5011407;28;20671;-78
2021/04/19 05:04:11;;;;;;;5.93;5.40;;;8.30;99.90;;;;;;5012634;28;20165;-78
2021/04/19 05:06:37;;;;;;;4.00;3.45;;;8.30;99.90;;;;;;5012469;28;20648;-77
2021/04/19 05:09:03;;;;;;;9.48;4.43;;;8.30;99.90;;;;;;5011331;28;20168;-78
2021/04/19 05:11:29;;;;;;;7.90;5.15;;;8.20;99.90;;;;;;5012494;28;20582;-74
2021/04/19 05:14:02;;;;;;;6.50;3.78;;;8.20;99.90;;;;;;5011249;28;20223;-78
2021/04/19 05:16:29;;;;;;;2.33;2.13;;;8.20;99.90;;;;;;5027425;28;20627;-78
2021/04/19 05:18:57;;;;;;;6.75;3.70;;;8.40;99.90;;;;;;5012859;28;20171;-79
2021/04/19 05:21:23;;;;;;;1.67;1.58;;;8.40;99.90;;;;;;5014990;28;20612;-80
2021/04/19 05:23:48;;;;;;;4.97;4.38;;;8.30;99.90;;;;;;5016013;28;20187;-78
2021/04/19 05:26:14;;;;;;;14.73;3.10;;;8.30;99.90;;;;;;5015651;28;20262;-78
2021/04/19 05:28:41;;;;;;;3.97;3.60;;;8.40;99.90;;;;;;5015832;28;20241;-77
2021/04/19 05:31:10;;;;;;;6.10;2.58;;;8.40;99.90;;;;;;5014372;28;20184;-76
2021/04/19 05:33:36;;;;;;;5.55;3.55;;;8.40;99.90;;;;;;5030767;28;20190;-74
2021/04/19 05:36:10;;;;;;;6.57;3.83;;;8.40;99.90;;;;;;5015181;28;20322;-75
2021/04/19 05:38:36;;;;;;;6.63;4.03;;;8.40;99.90;;;;;;5015299;28;20177;-78
2021/04/19 05:41:03;;;;;;;5.45;3.92;;;8.50;99.90;;;;;;5015280;28;20648;-78
2021/04/19 05:43:29;;;;;;;3.80;2.95;;;8.70;99.90;;;;;;5015563;28;20621;-86
2021/04/19 05:45:56;;;;;;;7.90;3.92;;;8.70;99.90;;;;;;5016182;28;20193;-78
2021/04/19 05:48:21;;;;;;;17.58;3.53;;;8.70;99.90;;;;;;5015808;28;20184;-77
2021/04/19 05:50:49;;;;;;;10.60;5.55;;;9.00;99.90;;;;;;5015833;28;20172;-80
2021/04/19 05:53:15;;;;;;;7.30;4.30;;;9.10;99.90;;;;;;5015631;28;20172;-78
2021/04/19 05:55:43;;;;;;;3.47;3.28;;;9.20;99.90;;;;;;5015404;28;20179;-80
2021/04/19 05:58:28;;;;;;;8.60;5.68;;;9.40;99.90;;;;;;5014953;28;20160;-77
2021/04/19 06:01:06;;;;;;;14.48;5.05;;;9.60;99.90;;;;;;5014881;28;20216;-79
2021/04/19 06:03:57;;;;;;;4.13;2.95;;;9.60;99.90;;;;;;5015452;28;20490;-75
2021/04/19 06:06:59;;;;;;;8.75;5.05;;;9.60;99.90;;;;;;5015299;28;20188;-76
2021/04/19 06:09:32;;;;;;;18.50;3.65;;;9.40;99.90;;;;;;5015058;28;20164;-77
2021/04/19 06:12:05;;;;;;;4.85;3.85;;;9.50;99.90;;;;;;5014906;28;20172;-79
2021/04/19 06:14:41;;;;;;;13.18;5.55;;;9.60;99.90;;;;;;5014927;28;20192;-75
2021/04/19 06:17:07;;;;;;;4.78;3.38;;;9.70;99.90;;;;;;5014696;28;20544;-78
2021/04/19 06:19:37;;;;;;;5.90;4.38;;;9.60;99.90;;;;;;5014192;28;20192;-75
2021/04/19 06:22:03;;;;;;;6.43;3.97;;;9.70;99.90;;;;;;5014584;28;20191;-81
2021/04/19 06:24:30;;;;;;;5.00;3.78;;;9.90;99.90;;;;;;5014266;28;20520;-77
2021/04/19 06:26:57;;;;;;;7.82;3.30;;;10.00;99.90;;;;;;5014453;28;20192;-76
2021/04/19 06:29:29;;;;;;;17.20;5.80;;;10.30;99.90;;;;;;5014557;28;20165;-75
2021/04/19 06:31:57;;;;;;;4.32;2.78;;;10.10;99.90;;;;;;5013611;28;20627;-77
2021/04/19 06:34:22;;;;;;;35.70;5.07;;;10.30;99.90;;;;;;5016610;28;20160;-74
2021/04/19 06:36:50;;;;;;;16.45;6.47;;;10.50;99.90;;;;;;5035142;28;20188;-76
2021/04/19 06:39:18;;;;;;;3.00;2.50;;;10.60;99.90;;;;;;5020281;28;20157;-77
2021/04/19 06:41:45;;;;;;;4.25;3.67;;;10.50;99.90;;;;;;5021438;28;20172;-75
2021/04/19 06:44:13;;;;;;;12.07;4.07;;;10.50;99.90;;;;;;5023744;28;20152;-74
2021/04/19 06:46:41;;;;;;;7.05;4.35;;;10.70;99.90;;;;;;5033324;28;20188;-75
2021/04/19 06:49:09;;;;;;;19.30;4.88;;;10.90;99.90;;;;;;5032371;28;20161;-76
2021/04/19 06:51:35;;;;;;;22.25;3.10;;;11.00;99.90;;;;;;5030588;28;20223;-80
2021/04/19 06:54:01;;;;;;;17.15;5.55;;;11.50;99.90;;;;;;5024143;28;20172;-77
2021/04/19 06:56:35;;;;;;;13.38;5.22;;;11.90;99.90;;;;;;5033107;28;20211;-79
2021/04/19 06:59:01;;;;;;;7.55;4.70;;;12.00;99.90;;;;;;5035154;28;20204;-79
2021/04/19 07:01:29;;;;;;;5.95;4.15;;;12.10;99.90;;;;;;5032989;28;20216;-78
2021/04/19 07:04:08;;;;;;;13.35;5.18;;;12.20;99.90;;;;;;5017638;28;20152;-78
2021/04/19 07:06:36;;;;;;;15.70;5.60;;;12.20;99.90;;;;;;5015513;28;20192;-77
2021/04/19 07:09:25;;;;;;;10.38;5.03;;;12.20;99.90;;;;;;5013902;28;20168;-77
2021/04/19 07:11:55;;;;;;;9.98;4.22;;;12.40;99.90;;;;;;5014966;28;20176;-78
2021/04/19 07:14:21;;;;;;;15.52;4.40;;;11.90;99.90;;;;;;5014883;28;20188;-78
2021/04/19 07:16:47;;;;;;;11.00;5.88;;;12.00;99.90;;;;;;5015262;28;20188;-81
2021/04/19 07:19:13;;;;;;;7.40;4.55;;;12.30;99.90;;;;;;5013100;28;20218;-82
2021/04/19 07:21:39;;;;;;;8.00;3.95;;;12.40;99.90;;;;;;5015474;28;20255;-81
2021/04/19 07:24:05;;;;;;;8.20;5.05;;;12.60;99.90;;;;;;5014692;28;20164;-82
2021/04/19 07:26:34;;;;;;;10.85;5.78;;;12.10;99.90;;;;;;5014355;28;20189;-81
2021/04/19 07:29:00;;;;;;;8.50;3.70;;;12.10;99.90;;;;;;5014114;28;20179;-82
2021/04/19 07:31:26;;;;;;;12.68;6.05;;;12.40;99.90;;;;;;5013980;28;20256;-81
2021/04/19 07:33:52;;;;;;;10.98;5.13;;;12.60;99.90;;;;;;5013764;28;20239;-80
2021/04/19 07:36:21;;;;;;;13.80;4.68;;;12.50;99.90;;;;;;5013676;28;20339;-80
2021/04/19 07:38:47;;;;;;;4.28;3.15;;;12.40;99.90;;;;;;5029150;28;20191;-80
2021/04/19 07:41:14;;;;;;;14.40;2.75;;;12.40;99.90;;;;;;5014288;28;20196;-83
2021/04/19 07:43:42;;;;;;;7.68;3.20;;;12.30;99.90;;;;;;5012403;28;20556;-79
2021/04/19 07:46:14;;;;;;;7.55;4.55;;;12.30;99.90;;;;;;5013660;28;20314;-75
2021/04/19 07:48:43;;;;;;;13.18;4.75;;;12.30;99.90;;;;;;5013206;28;20226;-75
2021/04/19 07:51:29;;;;;;;13.18;6.60;;;12.30;99.90;;;;;;5013668;28;20533;-75
2021/04/19 07:54:13;;;;;;;6.93;4.47;;;12.40;99.90;;;;;;5014795;28;20554;-77
2021/04/19 07:56:44;;;;;;;6.15;2.50;;;12.50;99.90;;;;;;5013281;28;20196;-76
2021/04/19 07:59:29;;;;;;;11.45;4.57;;;12.50;99.90;;;;;;5013161;28;20216;-77
2021/04/19 08:02:00;;;;;;;25.10;5.35;;;12.10;99.90;;;;;;5013312;28;20174;-77
2021/04/19 08:04:26;;;;;;;13.43;6.22;;;12.20;99.90;;;;;;5011734;28;20192;-77
2021/04/19 08:06:52;;;;;;;18.35;4.35;;;12.30;99.90;;;;;;5012978;28;20215;-77
2021/04/19 08:09:22;;;;;;;3.30;2.92;;;12.10;99.90;;;;;;5013035;28;20250;-77
2021/04/19 08:11:50;;;;;;;9.55;3.90;;;12.10;99.90;;;;;;5013128;28;20176;-80
2021/04/19 08:14:16;;;;;;;2.78;2.63;;;12.30;99.90;;;;;;5012277;28;20231;-79
2021/04/19 08:16:41;;;;;;;12.50;3.78;;;12.30;99.90;;;;;;5013142;28;20196;-81
2021/04/19 08:19:07;;;;;;;21.33;4.75;;;12.50;99.90;;;;;;5013190;28;20176;-80
2021/04/19 08:21:34;;;;;;;50.97;4.35;;;12.60;99.90;;;;;;5013581;28;20259;-80
2021/04/19 08:24:17;;;;;;;7.32;4.00;;;12.70;99.90;;;;;;5013540;28;20156;-76
2021/04/19 08:26:54;;;;;;;5.30;3.53;;;12.70;99.90;;;;;;5013290;28;20199;-78
2021/04/19 08:29:36;;;;;;;5.07;4.50;;;12.60;99.90;;;;;;5028371;28;20172;-78
2021/04/19 08:32:04;;;;;;;10.10;5.07;;;12.50;99.90;;;;;;5012794;28;20424;-79
2021/04/19 08:34:30;;;;;;;6.80;3.15;;;12.70;99.90;;;;;;5013044;28;20177;-76
2021/04/19 08:36:56;;;;;;;6.25;3.63;;;12.80;99.90;;;;;;5011770;28;20188;-76
2021/04/19 08:39:23;;;;;;;17.17;5.68;;;12.80;99.90;;;;;;5013727;28;20481;-77
2021/04/19 08:41:49;;;;;;;3.45;3.10;;;13.00;99.90;;;;;;5013303;28;20636;-75
2021/04/19 08:44:15;;;;;;;7.35;4.72;;;13.00;99.90;;;;;;5013193;28;20145;-76
2021/04/19 08:46:41;;;;;;;6.35;4.78;;;13.30;99.90;;;;;;5012926;28;20199;-76
2021/04/19 08:49:08;;;;;;;4.03;2.55;;;13.40;99.90;;;;;;5013039;28;20263;-75
2021/04/19 08:51:33;;;;;;;12.00;3.28;;;13.30;99.90;;;;;;5013402;28;20168;-75
2021/04/19 08:53:59;;;;;;;18.90;2.85;;;13.20;99.90;;;;;;5028196;28;20173;-76
2021/04/19 08:56:25;;;;;;;6.13;3.75;;;13.20;99.90;;;;;;5014852;28;20196;-75
2021/04/19 08:58:51;;;;;;;2.35;2.15;;;13.30;99.90;;;;;;5031076;28;20289;-76
2021/04/19 09:01:17;;;;;;;3.78;1.67;;;13.20;99.90;;;;;;5016552;28;20212;-77
2021/04/19 09:03:42;;;;;;;2.90;2.55;;;13.30;99.90;;;;;;5016839;28;20160;-76
2021/04/19 09:06:15;;;;;;;14.20;5.03;;;13.40;99.90;;;;;;5016821;28;20192;-76
2021/04/19 09:08:41;;;;;;;3.88;3.55;;;13.60;99.90;;;;;;5017000;28;20164;-76
2021/04/19 09:11:07;;;;;;;7.85;4.00;;;13.60;99.90;;;;;;5017105;28;20171;-80
2021/04/19 09:13:42;;;;;;;5.18;3.72;;;13.40;99.90;;;;;;5031924;28;20616;-77
2021/04/19 09:16:20;;;;;;;5.35;2.95;;;13.70;99.90;;;;;;5017357;28;20613;-78
2021/04/19 09:18:54;;;;;;;3.83;2.25;;;13.90;99.90;;;;;;5016475;28;20692;-80
2021/04/19 09:21:37;;;;;;;5.22;2.58;;;13.80;99.90;;;;;;5016455;28;20200;-84
2021/04/19 09:24:04;;;;;;;7.40;2.47;;;13.90;99.90;;;;;;5032642;28;20179;-79
2021/04/19 09:26:48;;;;;;;13.57;4.25;;;13.90;99.90;;;;;;5016782;28;20219;-80
2021/04/19 09:29:25;;;;;;;22.90;2.25;;;14.00;99.90;;;;;;5017204;28;20173;-79
2021/04/19 09:32:04;;;;;;;23.88;3.88;;;14.20;99.90;;;;;;5017140;28;20624;-79
2021/04/19 09:34:35;;;;;;;8.25;2.55;;;14.40;99.90;;;;;;5017166;28;20573;-80
2021/04/19 09:37:01;;;;;;;2.45;1.80;;;14.20;99.90;;;;;;5017068;28;20207;-78
2021/04/19 09:39:49;;;;;;;19.02;4.47;;;14.20;99.90;;;;;;5016259;28;20648;-79
2021/04/19 09:42:17;;;;;;;5.63;3.30;;;14.20;99.90;;;;;;5016281;28;20168;-78
2021/04/19 09:44:50;;;;;;;48.67;3.85;;;14.40;99.90;;;;;;5015873;28;20169;-76
2021/04/19 09:47:50;;;;;;;17.85;4.45;;;14.50;99.90;;;;;;5016519;28;20192;-81
2021/04/19 09:50:20;;;;;;;3.85;2.83;;;14.60;99.90;;;;;;5017769;28;20179;-83
2021/04/19 09:52:50;;;;;;;2.05;1.95;;;14.70;99.90;;;;;;5016316;28;20261;-84
2021/04/19 09:55:20;;;;;;;6.75;3.53;;;14.90;99.90;;;;;;5016967;28;20169;-83
2021/04/19 09:57:47;;;;;;;11.07;1.90;;;14.70;99.90;;;;;;5016565;28;20195;-81
2021/04/19 10:00:17;;;;;;;3.33;1.98;;;14.60;99.90;;;;;;5016390;28;20318;-80
2021/04/19 10:02:44;;;;;;;12.98;2.30;;;14.70;99.90;;;;;;5016593;28;20215;-81
2021/04/19 10:05:11;;;;;;;1.13;1.02;;;14.80;99.90;;;;;;5031457;28;20168;-80
2021/04/19 10:07:43;;;;;;;2.58;2.05;;;14.90;99.90;;;;;;5016852;28;20223;-78
2021/04/19 10:10:10;;;;;;;2.80;1.77;;;14.90;99.90;;;;;;5031337;28;20165;-84
2021/04/19 10:12:40;;;;;;;4.32;2.03;;;14.90;99.90;;;;;;5014917;28;20197;-81
2021/04/19 10:15:18;;;;;;;2.05;1.95;;;15.00;99.90;;;;;;5016480;28;20204;-80
2021/04/19 10:17:44;;;;;;;3.95;1.55;;;15.00;99.90;;;;;;5014131;28;20553;-83
2021/04/19 10:20:22;;;;;;;3.35;2.95;;;14.50;99.90;;;;;;5015847;28;20272;-80
2021/04/19 10:23:04;;;;;;;2.22;2.13;;;14.70;99.90;;;;;;5015540;28;20616;-82
2021/04/19 10:25:30;;;;;;;1.88;1.77;;;14.90;99.90;;;;;;5015965;28;20174;-84
2021/04/19 10:27:56;;;;;;;6.85;2.20;;;15.30;99.90;;;;;;5013480;28;20521;-78
2021/04/19 10:30:22;;;;;;;1.60;1.50;;;15.10;99.90;;;;;;5014645;28;20259;-74
2021/04/19 10:32:50;;;;;;;2.03;1.88;;;15.00;99.90;;;;;;5014425;28;20965;-75
2021/04/19 10:35:29;;;;;;;4.53;1.85;;;15.00;99.90;;;;;;5014498;28;20172;-75
2021/04/19 10:37:55;;;;;;;7.13;2.30;;;15.20;99.90;;;;;;5014515;28;20165;-77
2021/04/19 10:40:21;;;;;;;3.83;1.10;;;15.40;99.90;;;;;;5014223;28;20199;-76
2021/04/19 10:42:47;;;;;;;1.35;1.25;;;15.60;99.90;;;;;;5014438;28;20255;-76
2021/04/19 10:45:13;;;;;;;2.03;1.05;;;15.70;99.90;;;;;;5014546;28;20520;-75
2021/04/19 10:47:39;;;;;;;2.33;1.85;;;16.00;99.90;;;;;;5014274;28;20203;-76
2021/04/19 10:50:05;;;;;;;2.45;2.25;;;16.40;99.90;;;;;;5015065;28;20157;-77
2021/04/19 10:52:30;;;;;;;1.95;1.85;;;16.30;99.90;;;;;;5030260;28;20215;-76
2021/04/19 10:54:56;;;;;;;1.75;1.40;;;16.50;99.90;;;;;;5015166;28;20192;-77
2021/04/19 10:57:27;;;;;;;2.80;1.30;;;16.70;99.90;;;;;;5014716;28;20192;-77
2021/04/19 10:59:55;;;;;;;0.93;0.88;;;17.00;99.90;;;;;;5014083;28;20232;-78
2021/04/19 11:02:29;;;;;;;2.38;2.25;;;17.40;99.90;;;;;;5014877;28;20165;-78
2021/04/19 11:04:55;;;;;;;2.25;2.05;;;17.50;99.90;;;;;;5029734;28;20172;-76
2021/04/19 11:07:32;;;;;;;4.18;2.30;;;17.60;99.90;;;;;;5014378;28;20196;-77
2021/04/19 11:10:24;;;;;;;1.25;1.05;;;18.00;99.90;;;;;;5014480;28;20160;-75
2021/04/19 11:13:06;;;;;;;8.07;2.17;;;18.10;99.90;;;;;;5014156;28;20616;-78
2021/04/19 11:15:40;;;;;;;1.42;1.30;;;17.90;99.90;;;;;;5014176;28;20522;-78
2021/04/19 11:18:28;;;;;;;9.98;3.60;;;17.70;99.90;;;;;;5013263;28;20164;-75
2021/04/19 11:20:56;;;;;;;57.30;6.22;;;17.90;99.90;;;;;;5013767;28;20204;-76
2021/04/19 11:23:28;;;;;;;27.33;4.78;;;18.00;99.90;;;;;;5013993;28;20161;-75
2021/04/19 11:25:57;;;;;;;4.07;1.73;;;18.10;99.90;;;;;;5013752;28;20204;-74
2021/04/19 11:28:30;;;;;;;21.95;4.95;;;18.00;99.90;;;;;;5013455;28;20172;-75
2021/04/19 11:30:57;;;;;;;1.90;1.63;;;18.30;99.90;;;;;;5013762;28;20185;-75
2021/04/19 11:33:27;;;;;;;2.40;2.15;;;18.40;99.90;;;;;;5013617;28;20163;-75
2021/04/19 11:36:04;;;;;;;2.67;2.20;;;17.80;99.90;;;;;;5013117;28;20185;-77
2021/04/19 11:38:30;;;;;;;1.45;1.13;;;17.80;99.90;;;;;;5013270;28;20164;-76
2021/04/19 11:41:04;;;;;;;0.82;0.82;;;17.90;99.90;;;;;;5013539;28;20199;-75
2021/04/19 11:43:34;;;;;;;2.63;1.20;;;17.50;99.90;;;;;;5013695;28;20159;-75
2021/04/19 11:46:00;;;;;;;2.03;1.05;;;17.60;99.90;;;;;;5013271;28;20668;-74
2021/04/19 11:48:26;;;;;;;3.35;1.45;;;17.40;99.90;;;;;;5028707;28;20168;-76
2021/04/19 11:50:52;;;;;;;3.80;1.48;;;17.60;99.90;;;;;;5013508;28;20172;-79
2021/04/19 11:53:23;;;;;;;2.55;2.28;;;17.60;99.90;;;;;;5013730;28;20169;-76
2021/04/19 11:55:49;;;;;;;4.95;2.10;;;17.60;99.90;;;;;;5013666;28;20238;-77
2021/04/19 11:58:15;;;;;;;7.97;2.33;;;17.70;99.90;;;;;;5013455;28;20168;-76
2021/04/19 12:00:41;;;;;;;3.17;1.60;;;17.40;99.90;;;;;;5013295;28;20234;-77
2021/04/19 12:03:07;;;;;;;1.98;1.83;;;17.40;99.90;;;;;;5013557;28;20255;-76
2021/04/19 12:05:32;;;;;;;3.10;2.55;;;17.60;99.90;;;;;;5013446;28;20164;-78
2021/04/19 12:07:58;;;;;;;3.50;1.70;;;18.00;99.90;;;;;;5013506;28;20222;-76
2021/04/19 12:10:24;;;;;;;11.23;5.18;;;18.30;99.90;;;;;;5013446;28;20160;-79
2021/04/19 12:12:49;;;;;;;2.40;1.55;;;18.00;99.90;;;;;;5013246;28;20172;-77
2021/04/19 12:15:15;;;;;;;1.00;1.00;;;18.20;99.90;;;;;;5013581;28;20255;-77
2021/04/19 12:17:41;;;;;;;7.05;2.53;;;18.20;99.90;;;;;;5013104;28;20203;-77
2021/04/19 12:20:07;;;;;;;4.70;1.83;;;18.40;99.90;;;;;;5013084;28;20188;-76
2021/04/19 12:22:32;;;;;;;1.63;1.52;;;18.10;99.90;;;;;;5013167;28;20184;-77
2021/04/19 12:24:58;;;;;;;7.22;2.78;;;18.10;99.90;;;;;;5014405;28;20156;-76
2021/04/19 12:27:24;;;;;;;1.20;1.20;;;17.90;99.90;;;;;;5015602;28;20481;-79
2021/04/19 12:29:49;;;;;;;1.50;1.40;;;17.90;99.90;;;;;;5018302;28;20187;-76
2021/04/19 12:32:15;;;;;;;1.83;1.48;;;17.60;99.90;;;;;;5027868;28;20164;-75
2021/04/19 12:34:41;;;;;;;2.45;1.70;;;17.40;99.90;;;;;;5029747;28;20172;-75
2021/04/19 12:37:06;;;;;;;2.00;1.90;;;17.20;99.90;;;;;;5031759;28;20192;-77
2021/04/19 12:39:32;;;;;;;2.67;1.67;;;16.90;99.90;;;;;;5028533;28;20202;-78
2021/04/19 12:41:57;;;;;;;2.00;1.88;;;17.20;99.90;;;;;;5023994;28;20179;-75
2021/04/19 12:44:24;;;;;;;6.53;2.28;;;17.30;99.90;;;;;;5042017;28;20485;-78
2021/04/19 12:46:51;;;;;;;2.95;2.08;;;17.10;99.90;;;;;;5039061;28;20183;-76
2021/04/19 12:49:19;;;;;;;1.83;1.73;;;17.20;99.90;;;;;;5036767;28;20497;-76
2021/04/19 12:51:45;;;;;;;2.75;2.28;;;17.30;99.90;;;;;;5027304;28;20191;-79
2021/04/19 12:54:11;;;;;;;4.55;2.28;;;17.20;99.90;;;;;;5036597;28;20152;-77
2021/04/19 12:56:36;;;;;;;2.58;2.10;;;17.00;99.90;;;;;;5034784;28;20295;-77
2021/04/19 12:59:02;;;;;;;5.85;2.30;;;16.80;99.90;;;;;;5035915;28;20638;-75
2021/04/19 13:01:28;;;;;;;6.72;2.80;;;16.30;99.90;;;;;;5036125;28;20305;-76